Time;durP1;ratioP1;P1;durP2;ratioP2;P2;SDS_P1;SDS_P2;PMS_P1;PMS_P2;Temp;Humidity;BMP_temperature;BMP_pressure;BME280_temperature;BME280_humidity;BME280_pressure;Samples;Min_cycle;Max_cycle;Signal;HPM_P1;HPM_P2
2022/12/12 00:01:49;;;;;;;28.95;11.60;;;;;;;;;;5022154;28;20057;-86
2022/12/12 00:04:40;;;;;;;29.70;11.93;;;;;;;;;;5022155;28;20034;-85
2022/12/12 00:07:18;;;;;;;30.67;11.68;;;;;;;;;;5005750;28;20038;-85
2022/12/12 00:10:12;;;;;;;29.17;11.40;;;;;;;;;;5007723;28;20113;-85
2022/12/12 00:13:04;;;;;;;29.25;11.73;;;;;;;;;;5012246;28;20052;-85
2022/12/12 00:15:32;;;;;;;23.60;11.13;;;;;;;;;;5006587;28;20505;-86
2022/12/12 00:18:00;;;;;;;30.05;11.82;;;;;;;;;;5017768;28;20041;-85
2022/12/12 00:20:32;;;;;;;31.40;12.10;;;;;;;;;;5010100;28;20057;-86
2022/12/12 00:23:00;;;;;;;25.88;10.45;;;;;;;;;;5015421;28;20497;-85
2022/12/12 00:25:28;;;;;;;30.15;11.70;;;;;;;;;;5004794;28;20033;-85
2022/12/12 00:27:56;;;;;;;31.20;11.43;;;;;;;;;;5003633;28;20123;-85
2022/12/12 00:30:24;;;;;;;28.98;11.27;;;;;;;;;;5002786;28;20049;-85
2022/12/12 00:32:56;;;;;;;27.35;11.18;;;;;;;;;;5020460;28;20041;-85
2022/12/12 00:35:53;;;;;;;26.33;10.02;;;;;;;;;;5006959;28;20038;-85
2022/12/12 00:38:30;;;;;;;25.85;10.48;;;;;;;;;;5025913;28;20087;-86
2022/12/12 00:41:00;;;;;;;26.33;10.60;;;;;;;;;;5020514;28;20060;-86
2022/12/12 00:43:28;;;;;;;26.17;10.43;;;;;;;;;;5003520;28;20509;-87
2022/12/12 00:46:22;;;;;;;23.77;9.20;;;;;;;;;;5007827;28;20073;-86
2022/12/12 00:48:54;;;;;;;27.35;10.05;;;;;;;;;;5007352;28;20069;-86
2022/12/12 00:51:24;;;;;;;27.92;11.18;;;;;;;;;;4992354;28;20045;-86
2022/12/12 00:53:52;;;;;;;27.15;10.50;;;;;;;;;;5021010;28;20052;-86
2022/12/12 00:56:21;;;;;;;19.98;9.38;;;;;;;;;;4989360;28;20501;-86
2022/12/12 00:58:55;;;;;;;24.15;8.77;;;;;;;;;;4991477;28;20030;-86
2022/12/12 01:01:27;;;;;;;26.83;11.20;;;;;;;;;;5019037;28;20091;-86
2022/12/12 01:03:55;;;;;;;28.10;11.35;;;;;;;;;;5020557;28;20038;-86
2022/12/12 01:06:28;;;;;;;25.77;10.25;;;;;;;;;;5008190;28;20034;-86
2022/12/12 01:08:56;;;;;;;28.02;10.50;;;;;;;;;;4985563;28;20148;-86
2022/12/12 01:11:29;;;;;;;23.75;10.10;;;;;;;;;;5019878;28;20596;-86
2022/12/12 01:14:01;;;;;;;23.98;10.18;;;;;;;;;;5020229;28;20045;-86
2022/12/12 01:16:28;;;;;;;23.00;9.65;;;;;;;;;;4989438;28;20065;-86
2022/12/12 01:19:00;;;;;;;24.38;9.73;;;;;;;;;;4983017;28;20440;-86
2022/12/12 01:21:28;;;;;;;28.55;10.15;;;;;;;;;;5002578;28;20049;-86
2022/12/12 01:23:56;;;;;;;23.48;10.85;;;;;;;;;;5020325;28;20034;-87
2022/12/12 01:26:48;;;;;;;25.65;11.27;;;;;;;;;;5009355;28;20040;-85
2022/12/12 01:29:20;;;;;;;23.50;9.15;;;;;;;;;;4994230;28;20042;-86
2022/12/12 01:31:48;;;;;;;27.05;10.68;;;;;;;;;;5024183;28;20073;-86
2022/12/12 01:34:16;;;;;;;26.55;9.27;;;;;;;;;;5023451;28;20044;-86
2022/12/12 01:36:44;;;;;;;24.90;9.13;;;;;;;;;;5002745;28;20077;-86
2022/12/12 01:39:12;;;;;;;24.88;9.38;;;;;;;;;;5025342;28;20460;-86
2022/12/12 01:41:42;;;;;;;26.67;11.10;;;;;;;;;;5008895;28;20041;-86
2022/12/12 01:44:41;;;;;;;28.67;11.38;;;;;;;;;;5005856;28;20056;-86
2022/12/12 01:47:09;;;;;;;18.35;8.27;;;;;;;;;;5006576;28;20129;-86
2022/12/12 01:50:04;;;;;;;28.17;9.45;;;;;;;;;;5011567;28;20385;-85
2022/12/12 01:52:41;;;;;;;22.55;9.85;;;;;;;;;;5006466;28;20045;-86
2022/12/12 01:55:14;;;;;;;25.27;9.68;;;;;;;;;;5007719;28;20045;-86
2022/12/12 01:57:48;;;;;;;28.23;10.15;;;;;;;;;;5009686;28;20042;-87
2022/12/12 02:00:17;;;;;;;21.83;8.80;;;;;;;;;;5021262;28;20132;-86
2022/12/12 02:02:47;;;;;;;29.40;9.98;;;;;;;;;;5021594;28;20045;-86
2022/12/12 02:05:24;;;;;;;26.25;10.30;;;;;;;;;;4994845;28;20049;-86
2022/12/12 02:07:59;;;;;;;21.88;9.65;;;;;;;;;;5001674;28;20041;-86
2022/12/12 02:10:26;;;;;;;22.88;10.32;;;;;;;;;;5023759;28;20038;-86
2022/12/12 02:13:02;;;;;;;23.77;11.32;;;;;;;;;;5022992;28;20096;-86
2022/12/12 02:15:54;;;;;;;26.65;10.32;;;;;;;;;;5027387;28;20041;-86
2022/12/12 02:18:34;;;;;;;29.45;10.77;;;;;;;;;;5021697;28;20075;-86
2022/12/12 02:21:33;;;;;;;24.80;9.82;;;;;;;;;;5008850;28;20104;-86
2022/12/12 02:24:12;;;;;;;22.77;8.75;;;;;;;;;;5025061;28;20504;-86
2022/12/12 02:27:34;;;;;;;24.33;8.95;;;;;;;;;;5010785;28;20053;-86
2022/12/12 02:30:23;;;;;;;21.33;10.10;;;;;;;;;;5009205;28;20105;-86
2022/12/12 02:33:06;;;;;;;26.98;10.35;;;;;;;;;;4990328;28;20037;-86
2022/12/12 02:35:40;;;;;;;22.95;10.10;;;;;;;;;;4993279;28;20114;-86
2022/12/12 02:38:46;;;;;;;24.08;10.20;;;;;;;;;;5022896;28;20049;-86
2022/12/12 02:41:43;;;;;;;23.98;9.50;;;;;;;;;;5008240;28;20038;-86
2022/12/12 02:44:34;;;;;;;20.48;9.10;;;;;;;;;;5004542;28;20160;-86
2022/12/12 02:47:14;;;;;;;23.33;9.48;;;;;;;;;;5010979;28;20037;-86
2022/12/12 02:50:00;;;;;;;18.80;9.70;;;;;;;;;;5001804;28;20049;-86
2022/12/12 02:52:29;;;;;;;19.83;8.43;;;;;;;;;;5006149;28;20045;-86
2022/12/12 02:54:56;;;;;;;28.73;9.93;;;;;;;;;;5025027;28;20046;-86
2022/12/12 02:57:35;;;;;;;24.27;9.55;;;;;;;;;;4993291;28;20484;-86
2022/12/12 03:00:14;;;;;;;20.40;9.38;;;;;;;;;;5026248;28;20049;-86
2022/12/12 03:09:33;;;;;;;26.55;9.50;;;;;;;;;;4966770;28;20098;-86
2022/12/12 03:12:31;;;;;;;25.08;9.25;;;;;;;;;;4963951;28;20055;-86
2022/12/12 03:15:25;;;;;;;25.33;10.70;;;;;;;;;;4963768;28;20043;-86
2022/12/12 03:18:20;;;;;;;26.27;9.63;;;;;;;;;;4964383;28;20047;-86
2022/12/12 03:21:01;;;;;;;28.60;10.02;;;;;;;;;;4971780;28;20046;-86
2022/12/12 03:23:45;;;;;;;22.88;9.02;;;;;;;;;;4967632;28;20086;-86
2022/12/12 03:26:28;;;;;;;21.92;8.57;;;;;;;;;;4966337;28;20063;-86
2022/12/12 03:29:05;;;;;;;29.65;10.82;;;;;;;;;;4965570;28;20055;-86
2022/12/12 03:31:43;;;;;;;24.75;9.52;;;;;;;;;;4969161;28;20055;-86
2022/12/12 03:34:25;;;;;;;25.70;10.07;;;;;;;;;;4967899;28;20170;-86
2022/12/12 03:37:03;;;;;;;22.42;9.57;;;;;;;;;;4948864;28;20094;-86
2022/12/12 03:39:54;;;;;;;24.25;9.95;;;;;;;;;;4967081;28;20126;-86
2022/12/12 03:43:15;;;;;;;26.05;9.68;;;;;;;;;;5014319;28;20049;-86
2022/12/12 03:46:02;;;;;;;24.33;9.82;;;;;;;;;;5038951;28;20124;-86
2022/12/12 03:48:35;;;;;;;27.45;9.70;;;;;;;;;;5026045;28;20129;-86
2022/12/12 03:51:15;;;;;;;24.92;10.82;;;;;;;;;;5026311;28;20132;-86
2022/12/12 03:57:25;;;;;;;20.33;8.90;;;;;;;;;;5023217;28;20045;-86
2022/12/12 04:00:17;;;;;;;27.30;10.48;;;;;;;;;;5026644;28;20096;-86
2022/12/12 04:02:56;;;;;;;23.08;10.80;;;;;;;;;;5026967;28;20049;-86
2022/12/12 04:05:33;;;;;;;23.98;9.02;;;;;;;;;;4998097;28;20069;-86
2022/12/12 04:08:06;;;;;;;24.60;10.20;;;;;;;;;;5008886;28;20637;-86
2022/12/12 04:13:43;;;;;;;22.42;9.98;;;;;;;;;;5026349;28;20042;-86
2022/12/12 04:16:12;;;;;;;28.15;11.32;;;;;;;;;;5029738;28;20107;-86
2022/12/12 04:18:57;;;;;;;25.48;10.02;;;;;;;;;;5030129;28;20045;-86
2022/12/12 04:24:48;;;;;;;28.60;10.23;;;;;;;;;;5027919;28;20084;-86
2022/12/12 04:27:31;;;;;;;29.25;9.98;;;;;;;;;;5013563;28;20444;-86
2022/12/12 04:30:03;;;;;;;25.73;9.77;;;;;;;;;;5025298;28;20473;-86
2022/12/12 04:32:51;;;;;;;22.48;8.18;;;;;;;;;;5026317;28;20399;-86
2022/12/12 04:35:48;;;;;;;28.85;12.23;;;;;;;;;;5026117;28;20248;-86
2022/12/12 04:38:20;;;;;;;26.42;10.98;;;;;;;;;;5027615;28;20072;-86
2022/12/12 04:41:16;;;;;;;26.90;10.52;;;;;;;;;;5039514;28;20060;-86
2022/12/12 04:43:48;;;;;;;27.80;10.65;;;;;;;;;;5028314;28;20156;-86
2022/12/12 04:46:21;;;;;;;23.95;9.18;;;;;;;;;;5005217;28;20042;-86
2022/12/12 04:49:04;;;;;;;29.08;10.90;;;;;;;;;;5006395;28;20091;-86
2022/12/12 04:51:41;;;;;;;25.63;10.43;;;;;;;;;;5030303;28;20045;-86
2022/12/12 04:54:26;;;;;;;22.13;10.43;;;;;;;;;;5023036;28;20462;-86
2022/12/12 04:57:06;;;;;;;29.30;11.35;;;;;;;;;;5021928;28;20073;-86
2022/12/12 04:59:35;;;;;;;24.35;9.68;;;;;;;;;;5026699;28;20041;-86
2022/12/12 05:02:13;;;;;;;33.97;9.82;;;;;;;;;;5036613;28;20034;-87
2022/12/12 05:05:17;;;;;;;23.73;9.95;;;;;;;;;;5024427;28;20557;-87
2022/12/12 05:08:17;;;;;;;27.58;9.40;;;;;;;;;;4998365;28;20076;-86
2022/12/12 05:10:54;;;;;;;23.13;10.27;;;;;;;;;;4993894;28;20060;-86
2022/12/12 05:13:28;;;;;;;22.23;9.77;;;;;;;;;;5009007;28;20044;-86
2022/12/12 05:15:59;;;;;;;22.90;10.02;;;;;;;;;;5028218;28;20033;-86
2022/12/12 05:18:52;;;;;;;30.05;11.82;;;;;;;;;;5028740;28;20034;-86
2022/12/12 05:22:10;;;;;;;24.30;10.95;;;;;;;;;;5007166;28;20032;-86
2022/12/12 05:24:38;;;;;;;22.67;10.63;;;;;;;;;;5002783;28;20563;-86
2022/12/12 05:27:33;;;;;;;27.58;12.88;;;;;;;;;;5027495;28;20041;-86
2022/12/12 05:30:00;;;;;;;24.83;11.20;;;;;;;;;;5024202;28;20059;-86
2022/12/12 05:32:28;;;;;;;33.70;11.40;;;;;;;;;;4994996;28;20049;-86
2022/12/12 05:35:27;;;;;;;25.73;12.30;;;;;;;;;;5026086;28;20380;-86
2022/12/12 05:37:54;;;;;;;35.15;10.65;;;;;;;;;;4997639;28;20128;-86
2022/12/12 05:40:26;;;;;;;27.17;10.20;;;;;;;;;;5005722;28;20048;-86
2022/12/12 05:42:54;;;;;;;23.10;9.18;;;;;;;;;;5013061;28;20042;-85
2022/12/12 05:45:26;;;;;;;26.77;10.15;;;;;;;;;;5005135;28;20132;-86
2022/12/12 05:47:54;;;;;;;29.50;12.32;;;;;;;;;;5025577;28;20114;-86
2022/12/12 05:50:22;;;;;;;28.95;10.77;;;;;;;;;;5006178;28;20493;-85
2022/12/12 05:52:50;;;;;;;26.58;11.02;;;;;;;;;;5024844;28;20037;-86
2022/12/12 05:55:20;;;;;;;28.98;10.25;;;;;;;;;;5008237;28;20145;-86
2022/12/12 05:57:48;;;;;;;23.95;10.05;;;;;;;;;;4995185;28;20041;-86
2022/12/12 06:00:16;;;;;;;29.20;12.20;;;;;;;;;;5025187;28;20034;-85
2022/12/12 06:02:44;;;;;;;25.38;10.15;;;;;;;;;;5008387;28;20571;-85
2022/12/12 06:05:12;;;;;;;25.23;11.90;;;;;;;;;;4999794;28;20104;-87
2022/12/12 06:07:40;;;;;;;24.08;10.30;;;;;;;;;;5025026;28;20042;-87
2022/12/12 06:10:08;;;;;;;26.35;11.02;;;;;;;;;;4993980;28;20480;-87
2022/12/12 06:12:37;;;;;;;21.83;9.80;;;;;;;;;;5025239;28;20105;-88
2022/12/12 06:15:05;;;;;;;29.80;11.35;;;;;;;;;;4994643;28;20081;-88
2022/12/12 06:17:32;;;;;;;23.88;10.93;;;;;;;;;;5009545;28;20073;-88
2022/12/12 06:20:05;;;;;;;27.92;10.05;;;;;;;;;;5040594;28;20106;-87
2022/12/12 06:22:34;;;;;;;26.63;11.50;;;;;;;;;;4994829;28;20150;-88
2022/12/12 06:25:02;;;;;;;26.55;9.98;;;;;;;;;;5027359;28;20042;-88
2022/12/12 06:27:36;;;;;;;27.55;11.27;;;;;;;;;;4999718;28;20049;-84
2022/12/12 06:30:05;;;;;;;26.27;11.50;;;;;;;;;;5009395;28;20052;-85
2022/12/12 06:32:32;;;;;;;28.25;11.90;;;;;;;;;;5030267;28;20042;-87
2022/12/12 06:35:26;;;;;;;24.65;11.65;;;;;;;;;;5026522;28;20647;-87
2022/12/12 06:37:58;;;;;;;28.70;11.07;;;;;;;;;;4986778;28;20047;-86
2022/12/12 06:40:26;;;;;;;25.60;11.82;;;;;;;;;;5032077;28;20040;-86
2022/12/12 06:42:54;;;;;;;25.83;9.63;;;;;;;;;;5019626;28;20037;-86
2022/12/12 06:45:22;;;;;;;31.63;11.10;;;;;;;;;;5036422;28;20044;-86
2022/12/12 06:47:50;;;;;;;30.63;11.23;;;;;;;;;;5046205;28;20069;-86
2022/12/12 06:50:18;;;;;;;29.75;11.25;;;;;;;;;;5017836;28;20132;-87
2022/12/12 06:52:50;;;;;;;28.15;10.85;;;;;;;;;;5021279;28;20068;-87
2022/12/12 06:55:18;;;;;;;28.25;11.82;;;;;;;;;;5012404;28;20049;-86
2022/12/12 06:57:50;;;;;;;34.42;12.75;;;;;;;;;;5035397;28;20038;-85
2022/12/12 07:00:19;;;;;;;31.27;10.32;;;;;;;;;;5009608;28;20037;-86
2022/12/12 07:02:46;;;;;;;26.30;11.70;;;;;;;;;;5035311;28;20108;-85
2022/12/12 07:05:14;;;;;;;29.20;11.55;;;;;;;;;;5005473;28;20038;-86
2022/12/12 07:07:42;;;;;;;23.70;10.93;;;;;;;;;;4994496;28;20501;-86
2022/12/12 07:10:15;;;;;;;34.17;12.63;;;;;;;;;;5025303;28;20041;-86
2022/12/12 07:13:12;;;;;;;29.52;12.65;;;;;;;;;;5021065;28;20034;-86
2022/12/12 07:15:46;;;;;;;30.13;11.65;;;;;;;;;;5027078;28;20533;-87
2022/12/12 07:18:16;;;;;;;32.72;12.43;;;;;;;;;;5009268;28;20045;-86
2022/12/12 07:20:45;;;;;;;28.00;11.90;;;;;;;;;;5004613;28;20044;-85
2022/12/12 07:23:14;;;;;;;25.95;11.40;;;;;;;;;;5029144;23;20046;-86
2022/12/12 07:25:44;;;;;;;26.15;11.80;;;;;;;;;;5010676;28;20038;-87
2022/12/12 07:28:16;;;;;;;26.95;11.10;;;;;;;;;;4980197;28;20407;-87
2022/12/12 07:30:47;;;;;;;30.27;11.05;;;;;;;;;;4991347;28;20047;-87
2022/12/12 07:33:23;;;;;;;30.23;12.70;;;;;;;;;;5020020;28;20042;-87
2022/12/12 07:36:08;;;;;;;25.02;11.63;;;;;;;;;;5035125;28;20117;-87
2022/12/12 07:39:04;;;;;;;27.02;11.25;;;;;;;;;;5024857;28;20133;-87
2022/12/12 07:41:37;;;;;;;24.35;10.60;;;;;;;;;;4992674;28;20406;-87
2022/12/12 07:44:21;;;;;;;25.40;9.93;;;;;;;;;;5014031;28;20048;-87
2022/12/12 07:46:52;;;;;;;24.98;10.85;;;;;;;;;;5040564;28;20480;-87
2022/12/12 07:49:24;;;;;;;25.80;11.60;;;;;;;;;;5009822;28;20516;-87
2022/12/12 07:52:16;;;;;;;24.40;12.20;;;;;;;;;;5036038;28;20049;-87
2022/12/12 07:54:46;;;;;;;26.95;12.07;;;;;;;;;;5013911;28;20049;-87
2022/12/12 07:57:29;;;;;;;26.33;10.00;;;;;;;;;;5007690;28;20046;-87
2022/12/12 08:00:00;;;;;;;24.77;11.65;;;;;;;;;;5013697;28;20687;-87
2022/12/12 08:02:39;;;;;;;27.92;10.82;;;;;;;;;;4996216;28;20038;-87
2022/12/12 08:05:33;;;;;;;23.30;10.95;;;;;;;;;;5012389;28;20125;-86
2022/12/12 08:08:45;;;;;;;26.70;10.65;;;;;;;;;;5025029;28;20135;-87
2022/12/12 08:11:44;;;;;;;34.95;13.50;;;;;;;;;;5011098;28;20043;-87
2022/12/12 08:14:46;;;;;;;28.60;11.70;;;;;;;;;;5029589;28;20042;-87
2022/12/12 08:18:10;;;;;;;27.02;12.45;;;;;;;;;;5028427;28;20125;-87
2022/12/12 08:20:52;;;;;;;29.92;11.90;;;;;;;;;;5022498;28;20050;-87
2022/12/12 08:23:28;;;;;;;27.83;11.77;;;;;;;;;;4995125;28;20050;-87
2022/12/12 08:26:03;;;;;;;29.35;12.15;;;;;;;;;;5012161;28;20046;-87
2022/12/12 08:28:37;;;;;;;26.35;12.10;;;;;;;;;;4980152;28;20054;-87
2022/12/12 08:31:09;;;;;;;33.35;13.48;;;;;;;;;;5012323;28;20049;-87
2022/12/12 08:34:12;;;;;;;25.92;11.18;;;;;;;;;;5024213;28;20506;-87
2022/12/12 08:36:42;;;;;;;31.55;11.68;;;;;;;;;;5022209;28;20030;-87
2022/12/12 08:39:44;;;;;;;31.30;12.55;;;;;;;;;;5014425;28;20522;-87
2022/12/12 08:42:27;;;;;;;30.17;12.65;;;;;;;;;;5011453;28;20033;-88
2022/12/12 08:45:03;;;;;;;27.38;12.05;;;;;;;;;;5010291;28;20061;-87
2022/12/12 08:47:49;;;;;;;31.40;12.05;;;;;;;;;;5004413;28;20492;-87
2022/12/12 08:50:51;;;;;;;26.25;12.13;;;;;;;;;;5008020;28;20071;-87
2022/12/12 08:53:26;;;;;;;32.22;12.65;;;;;;;;;;4974950;28;20049;-87
2022/12/12 08:56:33;;;;;;;32.53;10.77;;;;;;;;;;5002471;28;20045;-87
2022/12/12 08:59:27;;;;;;;34.72;12.95;;;;;;;;;;4990454;28;20057;-87
2022/12/12 09:02:26;;;;;;;28.08;12.07;;;;;;;;;;4954340;28;20065;-87
2022/12/12 09:05:01;;;;;;;33.13;13.13;;;;;;;;;;4943463;28;21069;-89
2022/12/12 09:08:12;;;;;;;26.25;12.13;;;;;;;;;;4871596;29;20522;-88
2022/12/12 09:10:52;;;;;;;28.55;12.45;;;;;;;;;;4880960;29;20115;-88
2022/12/12 09:13:23;;;;;;;29.33;12.52;;;;;;;;;;4888409;29;20076;-87
2022/12/12 09:16:04;;;;;;;30.20;11.85;;;;;;;;;;4881891;29;20049;-87
2022/12/12 09:18:33;;;;;;;30.48;11.55;;;;;;;;;;4898749;29;20076;-87
2022/12/12 09:21:00;;;;;;;35.85;13.20;;;;;;;;;;4896342;29;20854;-87
2022/12/12 09:23:30;;;;;;;25.25;11.52;;;;;;;;;;4867986;29;20064;-87
2022/12/12 09:26:08;;;;;;;28.40;11.32;;;;;;;;;;4859705;29;20642;-87
2022/12/12 09:29:05;;;;;;;28.60;12.07;;;;;;;;;;4877190;29;20048;-87
2022/12/12 09:31:38;;;;;;;25.05;12.48;;;;;;;;;;4872054;29;20060;-87
2022/12/12 09:34:15;;;;;;;29.00;12.85;;;;;;;;;;4880292;29;20172;-87
2022/12/12 09:36:45;;;;;;;26.38;12.63;;;;;;;;;;4879993;29;20044;-87
2022/12/12 09:39:18;;;;;;;25.85;11.68;;;;;;;;;;4893422;29;20052;-87
2022/12/12 09:41:49;;;;;;;28.27;11.60;;;;;;;;;;4883077;29;20058;-87
2022/12/12 09:44:21;;;;;;;32.63;11.43;;;;;;;;;;4921775;28;20074;-87
2022/12/12 09:47:01;;;;;;;28.30;10.02;;;;;;;;;;4993524;28;20753;-85
2022/12/12 09:49:55;;;;;;;33.05;11.32;;;;;;;;;;4979403;28;20050;-85
2022/12/12 09:52:49;;;;;;;26.35;11.30;;;;;;;;;;5005121;28;20054;-86
2022/12/12 09:55:39;;;;;;;27.48;11.93;;;;;;;;;;4978413;28;20140;-86
2022/12/12 09:59:02;;;;;;;27.42;12.05;;;;;;;;;;4985797;28;20132;-86
2022/12/12 10:02:08;;;;;;;29.23;10.90;;;;;;;;;;4928513;29;20048;-86
2022/12/12 10:04:47;;;;;;;31.08;11.55;;;;;;;;;;4914900;29;20083;-86
2022/12/12 10:07:25;;;;;;;30.35;11.52;;;;;;;;;;4912318;29;20074;-86
2022/12/12 10:10:25;;;;;;;35.08;10.90;;;;;;;;;;4931536;29;20032;-86
2022/12/12 10:12:54;;;;;;;27.45;12.57;;;;;;;;;;4931476;29;20059;-86
2022/12/12 10:16:14;;;;;;;29.63;10.52;;;;;;;;;;4919994;29;20110;-87
2022/12/12 10:18:52;;;;;;;32.30;12.60;;;;;;;;;;4915761;29;20075;-87
2022/12/12 10:21:39;;;;;;;34.03;12.05;;;;;;;;;;4873983;29;20717;-87
2022/12/12 10:24:49;;;;;;;33.60;11.68;;;;;;;;;;4859558;29;20068;-87
2022/12/12 10:27:18;;;;;;;29.50;11.70;;;;;;;;;;4857611;29;20082;-87
2022/12/12 10:30:16;;;;;;;32.25;10.38;;;;;;;;;;4851060;29;20904;-87
2022/12/12 10:33:11;;;;;;;32.83;12.73;;;;;;;;;;4927117;29;20059;-87
2022/12/12 10:36:31;;;;;;;37.00;12.00;;;;;;;;;;4922086;29;20044;-86
2022/12/12 10:39:19;;;;;;;34.22;11.73;;;;;;;;;;4932178;29;20134;-87
2022/12/12 10:42:29;;;;;;;27.83;9.80;;;;;;;;;;4935763;29;20055;-86
2022/12/12 10:45:52;;;;;;;23.10;8.38;;;;;;;;;;4910389;29;20060;-86
2022/12/12 10:48:35;;;;;;;22.10;8.85;;;;;;;;;;4901037;29;21933;-87
2022/12/12 10:51:18;;;;;;;27.25;8.13;;;;;;;;;;4884118;29;20142;-87
2022/12/12 10:53:49;;;;;;;21.65;8.13;;;;;;;;;;4897341;29;20052;-87
2022/12/12 10:56:28;;;;;;;23.58;9.80;;;;;;;;;;4897505;29;20052;-86
2022/12/12 10:59:48;;;;;;;22.67;8.07;;;;;;;;;;4895643;29;20103;-87
2022/12/12 11:02:45;;;;;;;25.60;9.98;;;;;;;;;;4899138;29;20048;-87
2022/12/12 11:05:49;;;;;;;24.58;9.88;;;;;;;;;;4919302;29;20786;-87
2022/12/12 11:09:14;;;;;;;31.05;10.82;;;;;;;;;;4935346;28;20051;-86
2022/12/12 11:12:16;;;;;;;25.30;8.75;;;;;;;;;;4987157;28;20120;-86
2022/12/12 11:15:12;;;;;;;26.58;9.55;;;;;;;;;;4988662;28;20054;-86
2022/12/12 11:17:48;;;;;;;28.08;9.80;;;;;;;;;;4971198;28;20914;-86
2022/12/12 11:20:21;;;;;;;20.17;9.02;;;;;;;;;;4972421;28;20085;-86
2022/12/12 11:22:55;;;;;;;27.13;9.98;;;;;;;;;;4957217;28;20050;-86
2022/12/12 11:26:06;;;;;;;24.25;9.02;;;;;;;;;;4985250;28;20054;-86
2022/12/12 11:28:40;;;;;;;21.58;9.43;;;;;;;;;;4952450;28;20070;-86
2022/12/12 11:31:17;;;;;;;24.38;9.68;;;;;;;;;;4962095;28;20699;-86
2022/12/12 11:34:05;;;;;;;24.73;9.68;;;;;;;;;;4975761;28;20065;-89
2022/12/12 11:36:40;;;;;;;24.40;9.73;;;;;;;;;;4960544;28;20054;-88
2022/12/12 11:39:43;;;;;;;26.75;10.00;;;;;;;;;;4944665;28;20050;-88
2022/12/12 11:42:38;;;;;;;27.45;10.60;;;;;;;;;;4961746;28;20142;-88
2022/12/12 11:45:15;;;;;;;28.65;10.27;;;;;;;;;;4945290;28;20528;-88
2022/12/12 11:47:46;;;;;;;33.83;10.40;;;;;;;;;;4972004;28;20053;-89
2022/12/12 11:50:48;;;;;;;25.35;9.52;;;;;;;;;;5001539;28;20067;-89
2022/12/12 11:53:43;;;;;;;28.60;10.10;;;;;;;;;;5017455;28;20111;-88
2022/12/12 11:56:57;;;;;;;31.98;11.20;;;;;;;;;;4980459;28;20496;-88
2022/12/12 12:00:05;;;;;;;31.08;10.25;;;;;;;;;;4976701;28;20050;-88
2022/12/12 12:03:25;;;;;;;31.98;12.35;;;;;;;;;;4979868;28;20114;-88
2022/12/12 12:06:10;;;;;;;30.67;10.90;;;;;;;;;;4925620;29;20058;-88
2022/12/12 12:09:05;;;;;;;26.25;11.48;;;;;;;;;;4927785;29;20050;-89
2022/12/12 12:12:15;;;;;;;29.48;11.23;;;;;;;;;;4917073;29;20180;-88
2022/12/12 12:15:15;;;;;;;26.85;11.20;;;;;;;;;;4914775;29;20136;-88
2022/12/12 12:18:26;;;;;;;32.58;10.95;;;;;;;;;;4877778;29;20053;-88
2022/12/12 12:22:05;;;;;;;33.58;10.07;;;;;;;;;;4862609;29;20053;-88
2022/12/12 12:24:47;;;;;;;28.88;11.57;;;;;;;;;;4805536;29;20061;-88
2022/12/12 12:27:44;;;;;;;23.67;9.68;;;;;;;;;;4823086;29;20132;-88
2022/12/12 12:30:24;;;;;;;31.95;11.68;;;;;;;;;;4823474;29;20399;-88
2022/12/12 12:33:18;;;;;;;24.92;10.23;;;;;;;;;;4777004;29;20049;-88
2022/12/12 12:36:27;;;;;;;33.55;12.40;;;;;;;;;;4807485;29;20046;-88
2022/12/12 12:39:45;;;;;;;31.10;9.93;;;;;;;;;;4826780;29;20048;-88
2022/12/12 12:43:00;;;;;;;32.20;10.15;;;;;;;;;;4828063;29;20481;-88
2022/12/12 12:46:17;;;;;;;30.00;12.40;;;;;;;;;;4811446;29;20050;-89
2022/12/12 12:48:58;;;;;;;33.00;10.85;;;;;;;;;;4737263;30;20144;-88
2022/12/12 12:51:38;;;;;;;31.98;10.57;;;;;;;;;;4766516;30;20053;-87
2022/12/12 12:54:19;;;;;;;24.85;10.60;;;;;;;;;;4754854;30;20052;-87
2022/12/12 12:56:58;;;;;;;38.15;11.82;;;;;;;;;;4800515;29;20058;-87
2022/12/12 12:59:37;;;;;;;29.30;11.55;;;;;;;;;;4790922;29;20070;-87
2022/12/12 13:02:19;;;;;;;33.80;10.73;;;;;;;;;;4817420;29;20059;-88
2022/12/12 13:05:08;;;;;;;27.85;10.05;;;;;;;;;;4804318;29;20058;-87
2022/12/12 13:07:55;;;;;;;32.13;10.55;;;;;;;;;;4809133;29;20827;-87
2022/12/12 13:10:28;;;;;;;33.50;12.15;;;;;;;;;;4820548;29;20521;-87
2022/12/12 13:13:05;;;;;;;29.75;11.23;;;;;;;;;;4808455;29;20054;-88
2022/12/12 13:15:44;;;;;;;27.70;10.57;;;;;;;;;;4874889;29;20190;-88
2022/12/12 13:18:15;;;;;;;30.05;10.77;;;;;;;;;;4880635;29;20138;-87
2022/12/12 13:20:53;;;;;;;27.42;9.80;;;;;;;;;;4904304;29;20057;-87
2022/12/12 13:24:22;;;;;;;25.05;9.07;;;;;;;;;;4914912;29;20594;-87
2022/12/12 13:27:04;;;;;;;28.13;11.48;;;;;;;;;;5025489;28;20038;-86
2022/12/12 13:29:45;;;;;;;31.42;10.48;;;;;;;;;;4976985;28;20131;-86
2022/12/12 13:32:45;;;;;;;27.30;10.45;;;;;;;;;;5010521;28;20041;-86
2022/12/12 13:35:30;;;;;;;26.92;10.68;;;;;;;;;;5016099;28;20053;-86
2022/12/12 13:37:59;;;;;;;29.30;11.10;;;;;;;;;;5001207;28;20076;-86
2022/12/12 13:41:06;;;;;;;32.28;10.25;;;;;;;;;;4992279;28;20468;-86
2022/12/12 13:44:04;;;;;;;32.10;11.38;;;;;;;;;;5025385;28;20058;-86
2022/12/12 13:46:36;;;;;;;26.67;10.57;;;;;;;;;;4936776;28;20039;-86
2022/12/12 13:49:26;;;;;;;29.23;11.00;;;;;;;;;;4971356;28;20042;-86
2022/12/12 13:52:30;;;;;;;26.80;11.13;;;;;;;;;;4953386;28;20046;-86
2022/12/12 13:55:19;;;;;;;26.85;10.20;;;;;;;;;;4974700;28;20106;-86
2022/12/12 13:58:09;;;;;;;29.63;11.18;;;;;;;;;;4972310;28;20054;-85
2022/12/12 14:01:29;;;;;;;27.13;10.18;;;;;;;;;;4971689;28;20414;-86
2022/12/12 14:04:01;;;;;;;30.10;10.77;;;;;;;;;;4970971;28;20465;-86
2022/12/12 14:06:31;;;;;;;30.33;11.35;;;;;;;;;;4938532;28;20074;-85
2022/12/12 14:09:00;;;;;;;28.02;10.65;;;;;;;;;;4938599;28;20046;-85
2022/12/12 14:11:35;;;;;;;32.70;12.23;;;;;;;;;;4955692;28;20062;-84
2022/12/12 14:14:08;;;;;;;36.83;11.38;;;;;;;;;;4971561;28;20130;-85
2022/12/12 14:16:40;;;;;;;30.63;11.40;;;;;;;;;;4949935;28;20054;-84
2022/12/12 14:19:38;;;;;;;27.55;9.20;;;;;;;;;;4973238;28;20389;-85
2022/12/12 14:22:59;;;;;;;24.13;10.48;;;;;;;;;;4985899;28;20517;-85
2022/12/12 14:25:32;;;;;;;31.85;10.82;;;;;;;;;;4950554;28;20055;-85
2022/12/12 14:28:30;;;;;;;25.95;10.18;;;;;;;;;;4971801;28;20122;-84
2022/12/12 14:31:16;;;;;;;31.42;9.38;;;;;;;;;;4954274;28;20050;-84
2022/12/12 14:34:14;;;;;;;32.75;11.90;;;;;;;;;;4954559;28;20082;-84
2022/12/12 14:37:06;;;;;;;28.48;10.52;;;;;;;;;;4953713;28;20090;-85
2022/12/12 14:39:54;;;;;;;27.45;9.93;;;;;;;;;;4952661;28;20050;-85
2022/12/12 14:42:44;;;;;;;27.15;9.95;;;;;;;;;;4947495;28;20038;-85
2022/12/12 14:45:51;;;;;;;34.33;11.45;;;;;;;;;;4950679;28;20049;-85
2022/12/12 14:48:35;;;;;;;31.83;11.05;;;;;;;;;;4955460;28;20497;-85
2022/12/12 14:51:14;;;;;;;29.35;9.85;;;;;;;;;;4940346;28;20370;-85
2022/12/12 14:53:53;;;;;;;29.88;11.30;;;;;;;;;;4940171;28;20528;-85
2022/12/12 14:56:36;;;;;;;30.00;9.88;;;;;;;;;;4953087;28;20070;-84
2022/12/12 14:59:34;;;;;;;26.90;11.55;;;;;;;;;;4951224;28;20056;-85
2022/12/12 15:02:40;;;;;;;31.02;10.45;;;;;;;;;;5004078;28;20689;-85
2022/12/12 15:05:28;;;;;;;23.13;10.68;;;;;;;;;;5008389;28;20050;-85
2022/12/12 15:08:25;;;;;;;28.65;11.02;;;;;;;;;;5027430;28;20047;-85
2022/12/12 15:11:03;;;;;;;32.13;11.35;;;;;;;;;;5018154;28;20407;-84
2022/12/12 15:13:37;;;;;;;28.15;11.02;;;;;;;;;;4973732;28;20485;-84
2022/12/12 15:16:08;;;;;;;29.25;11.32;;;;;;;;;;5040663;28;20100;-84
2022/12/12 15:19:02;;;;;;;32.35;10.13;;;;;;;;;;5022331;28;20392;-85
2022/12/12 15:21:32;;;;;;;29.60;10.60;;;;;;;;;;4967341;28;20046;-85
2022/12/12 15:24:04;;;;;;;28.40;11.07;;;;;;;;;;5007344;28;20057;-85
2022/12/12 15:26:33;;;;;;;33.22;12.00;;;;;;;;;;5010120;28;20408;-85
2022/12/12 15:29:29;;;;;;;33.00;11.77;;;;;;;;;;5009972;28;20030;-85
2022/12/12 15:32:02;;;;;;;31.85;11.95;;;;;;;;;;4993740;28;20050;-85
2022/12/12 15:34:46;;;;;;;34.72;12.13;;;;;;;;;;5028522;28;20129;-85
2022/12/12 15:37:21;;;;;;;35.20;13.63;;;;;;;;;;5038726;28;20046;-84
2022/12/12 15:40:13;;;;;;;36.38;14.05;;;;;;;;;;5041232;28;20046;-85
2022/12/12 15:42:51;;;;;;;35.47;14.52;;;;;;;;;;5032157;28;20124;-85
2022/12/12 15:45:40;;;;;;;35.60;13.20;;;;;;;;;;5027294;28;20062;-85
2022/12/12 15:48:17;;;;;;;32.42;12.60;;;;;;;;;;5009933;28;20043;-85
2022/12/12 15:50:55;;;;;;;28.23;12.75;;;;;;;;;;5027161;28;20065;-85
2022/12/12 15:53:33;;;;;;;34.35;13.18;;;;;;;;;;5030403;28;20455;-85
2022/12/12 15:56:28;;;;;;;33.08;13.18;;;;;;;;;;5008784;28;20033;-85
2022/12/12 15:59:23;;;;;;;39.72;13.70;;;;;;;;;;4992079;28;20058;-85
2022/12/12 16:01:50;;;;;;;33.75;11.80;;;;;;;;;;5007995;28;20091;-85
2022/12/12 16:04:52;;;;;;;36.35;12.10;;;;;;;;;;4995922;28;20050;-85
2022/12/12 16:07:35;;;;;;;33.75;12.65;;;;;;;;;;5002869;28;20054;-85
2022/12/12 16:10:19;;;;;;;;;;;;;;;;;;5020701;28;20070;-85